sensor_id;sensor_type;location;lat;lon;timestamp;temperature;humidity
41262;DHT22;29629;52.532;13.352;2023-12-07T00:01:34;2.20;99.90
41262;DHT22;29629;52.532;13.352;2023-12-07T00:04:01;2.10;99.90
41262;DHT22;29629;52.532;13.352;2023-12-07T00:06:28;2.10;99.90
41262;DHT22;29629;52.532;13.352;2023-12-07T00:08:55;2.10;99.90
41262;DHT22;29629;52.532;13.352;2023-12-07T00:11:25;2.20;99.90
41262;DHT22;29629;52.532;13.352;2023-12-07T00:13:52;2.20;99.90
41262;DHT22;29629;52.532;13.352;2023-12-07T00:16:19;2.00;99.90
41262;DHT22;29629;52.532;13.352;2023-12-07T00:18:46;2.20;99.90
41262;DHT22;29629;52.532;13.352;2023-12-07T00:21:12;2.20;99.90
41262;DHT22;29629;52.532;13.352;2023-12-07T00:23:40;2.20;99.90
41262;DHT22;29629;52.532;13.352;2023-12-07T00:26:07;2.20;99.90
41262;DHT22;29629;52.532;13.352;2023-12-07T00:28:35;2.20;99.90
41262;DHT22;29629;52.532;13.352;2023-12-07T00:31:02;2.20;99.90
41262;DHT22;29629;52.532;13.352;2023-12-07T00:33:29;2.20;99.90
41262;DHT22;29629;52.532;13.352;2023-12-07T00:35:56;2.10;99.90
41262;DHT22;29629;52.532;13.352;2023-12-07T00:38:23;2.10;99.90
41262;DHT22;29629;52.532;13.352;2023-12-07T00:40:49;2.20;99.90
41262;DHT22;29629;52.532;13.352;2023-12-07T00:43:16;2.20;99.90
41262;DHT22;29629;52.532;13.352;2023-12-07T00:45:45;2.10;99.90
41262;DHT22;29629;52.532;13.352;2023-12-07T00:48:12;2.10;99.90
41262;DHT22;29629;52.532;13.352;2023-12-07T00:50:39;2.00;99.90
41262;DHT22;29629;52.532;13.352;2023-12-07T00:53:05;2.00;99.90
41262;DHT22;29629;52.532;13.352;2023-12-07T00:55:32;2.00;99.90
41262;DHT22;29629;52.532;13.352;2023-12-07T00:58:00;1.90;99.90
41262;DHT22;29629;52.532;13.352;2023-12-07T01:00:27;2.10;99.90
41262;DHT22;29629;52.532;13.352;2023-12-07T01:02:56;2.10;99.90
41262;DHT22;29629;52.532;13.352;2023-12-07T01:05:23;2.10;99.90
41262;DHT22;29629;52.532;13.352;2023-12-07T01:07:49;2.10;99.90
41262;DHT22;29629;52.532;13.352;2023-12-07T01:10:16;2.10;99.90
41262;DHT22;29629;52.532;13.352;2023-12-07T01:12:43;2.00;99.90
41262;DHT22;29629;52.532;13.352;2023-12-07T01:15:10;2.00;99.90
41262;DHT22;29629;52.532;13.352;2023-12-07T01:17:38;2.10;99.90
41262;DHT22;29629;52.532;13.352;2023-12-07T01:20:07;2.00;99.90
41262;DHT22;29629;52.532;13.352;2023-12-07T01:22:38;2.10;99.90
41262;DHT22;29629;52.532;13.352;2023-12-07T01:25:06;2.20;99.90
41262;DHT22;29629;52.532;13.352;2023-12-07T01:27:33;2.20;99.90
41262;DHT22;29629;52.532;13.352;2023-12-07T01:30:00;2.10;99.90
41262;DHT22;29629;52.532;13.352;2023-12-07T01:32:29;2.10;99.90
41262;DHT22;29629;52.532;13.352;2023-12-07T01:34:56;2.00;99.90
41262;DHT22;29629;52.532;13.352;2023-12-07T01:37:24;2.20;99.90
41262;DHT22;29629;52.532;13.352;2023-12-07T01:39:53;2.30;99.90
41262;DHT22;29629;52.532;13.352;2023-12-07T01:42:20;2.30;99.90
41262;DHT22;29629;52.532;13.352;2023-12-07T01:44:47;2.30;99.90
41262;DHT22;29629;52.532;13.352;2023-12-07T01:47:14;2.30;99.90
41262;DHT22;29629;52.532;13.352;2023-12-07T01:49:42;2.40;99.90
41262;DHT22;29629;52.532;13.352;2023-12-07T01:52:09;2.30;99.90
41262;DHT22;29629;52.532;13.352;2023-12-07T01:54:39;2.30;99.90
41262;DHT22;29629;52.532;13.352;2023-12-07T01:57:06;2.20;99.90
41262;DHT22;29629;52.532;13.352;2023-12-07T01:59:33;2.40;99.90
41262;DHT22;29629;52.532;13.352;2023-12-07T02:02:00;2.30;99.90
41262;DHT22;29629;52.532;13.352;2023-12-07T02:04:27;2.20;99.90
41262;DHT22;29629;52.532;13.352;2023-12-07T02:06:57;2.10;99.90
41262;DHT22;29629;52.532;13.352;2023-12-07T02:09:24;2.10;99.90
41262;DHT22;29629;52.532;13.352;2023-12-07T02:11:53;2.10;99.90
41262;DHT22;29629;52.532;13.352;2023-12-07T02:14:20;2.10;99.90
41262;DHT22;29629;52.532;13.352;2023-12-07T02:16:50;2.10;99.90
41262;DHT22;29629;52.532;13.352;2023-12-07T02:19:32;2.10;99.90
41262;DHT22;29629;52.532;13.352;2023-12-07T02:22:10;2.20;99.90
41262;DHT22;29629;52.532;13.352;2023-12-07T02:24:42;2.20;99.90
41262;DHT22;29629;52.532;13.352;2023-12-07T02:27:15;2.30;99.90
41262;DHT22;29629;52.532;13.352;2023-12-07T02:29:42;2.30;99.90
41262;DHT22;29629;52.532;13.352;2023-12-07T02:32:09;2.40;99.90
41262;DHT22;29629;52.532;13.352;2023-12-07T02:34:36;2.30;99.90
41262;DHT22;29629;52.532;13.352;2023-12-07T02:37:04;2.30;99.90
41262;DHT22;29629;52.532;13.352;2023-12-07T02:39:31;2.40;99.90
41262;DHT22;29629;52.532;13.352;2023-12-07T02:41:59;2.40;99.90
41262;DHT22;29629;52.532;13.352;2023-12-07T02:44:28;2.20;99.90
41262;DHT22;29629;52.532;13.352;2023-12-07T02:46:56;2.30;99.90
41262;DHT22;29629;52.532;13.352;2023-12-07T02:49:23;2.40;99.90
41262;DHT22;29629;52.532;13.352;2023-12-07T02:51:50;2.50;99.90
41262;DHT22;29629;52.532;13.352;2023-12-07T02:54:17;2.40;99.90
41262;DHT22;29629;52.532;13.352;2023-12-07T02:56:44;2.30;99.90
41262;DHT22;29629;52.532;13.352;2023-12-07T02:59:11;2.40;99.90
41262;DHT22;29629;52.532;13.352;2023-12-07T03:01:39;2.30;99.90
41262;DHT22;29629;52.532;13.352;2023-12-07T03:04:06;2.30;99.90
41262;DHT22;29629;52.532;13.352;2023-12-07T03:06:33;2.40;99.90
41262;DHT22;29629;52.532;13.352;2023-12-07T03:09:00;2.50;99.90
41262;DHT22;29629;52.532;13.352;2023-12-07T03:11:27;2.40;99.90
41262;DHT22;29629;52.532;13.352;2023-12-07T03:13:54;2.60;99.90
41262;DHT22;29629;52.532;13.352;2023-12-07T03:16:21;2.60;99.90
41262;DHT22;29629;52.532;13.352;2023-12-07T03:18:49;2.50;99.90
41262;DHT22;29629;52.532;13.352;2023-12-07T03:21:16;2.40;99.90
41262;DHT22;29629;52.532;13.352;2023-12-07T03:23:43;2.40;99.90
41262;DHT22;29629;52.532;13.352;2023-12-07T03:26:10;2.50;99.90
41262;DHT22;29629;52.532;13.352;2023-12-07T03:28:37;2.50;99.90
41262;DHT22;29629;52.532;13.352;2023-12-07T03:31:04;2.60;99.90
41262;DHT22;29629;52.532;13.352;2023-12-07T03:33:31;2.60;99.90
41262;DHT22;29629;52.532;13.352;2023-12-07T03:36:00;2.60;99.90
41262;DHT22;29629;52.532;13.352;2023-12-07T03:38:27;2.50;99.90
41262;DHT22;29629;52.532;13.352;2023-12-07T03:40:54;2.50;99.90
41262;DHT22;29629;52.532;13.352;2023-12-07T03:43:21;2.60;99.90
41262;DHT22;29629;52.532;13.352;2023-12-07T03:45:48;2.60;99.90
41262;DHT22;29629;52.532;13.352;2023-12-07T03:48:15;2.60;99.90
41262;DHT22;29629;52.532;13.352;2023-12-07T03:50:42;2.60;99.90
41262;DHT22;29629;52.532;13.352;2023-12-07T03:53:11;2.60;99.90
41262;DHT22;29629;52.532;13.352;2023-12-07T03:55:38;2.60;99.90
41262;DHT22;29629;52.532;13.352;2023-12-07T03:58:05;2.50;99.90
41262;DHT22;29629;52.532;13.352;2023-12-07T04:00:32;2.50;99.90
41262;DHT22;29629;52.532;13.352;2023-12-07T04:02:59;2.50;99.90
41262;DHT22;29629;52.532;13.352;2023-12-07T04:05:26;2.40;99.90
41262;DHT22;29629;52.532;13.352;2023-12-07T04:07:53;2.50;99.90
41262;DHT22;29629;52.532;13.352;2023-12-07T04:10:21;2.50;99.90
41262;DHT22;29629;52.532;13.352;2023-12-07T04:12:48;2.60;99.90
41262;DHT22;29629;52.532;13.352;2023-12-07T04:15:15;2.60;99.90
41262;DHT22;29629;52.532;13.352;2023-12-07T04:17:42;2.60;99.90
41262;DHT22;29629;52.532;13.352;2023-12-07T04:20:10;2.50;99.90
41262;DHT22;29629;52.532;13.352;2023-12-07T04:22:38;2.50;99.90
41262;DHT22;29629;52.532;13.352;2023-12-07T04:25:06;2.60;99.90
41262;DHT22;29629;52.532;13.352;2023-12-07T04:27:34;2.60;99.90
41262;DHT22;29629;52.532;13.352;2023-12-07T04:30:01;2.60;99.90
41262;DHT22;29629;52.532;13.352;2023-12-07T04:32:29;2.60;99.90
41262;DHT22;29629;52.532;13.352;2023-12-07T04:34:56;2.60;99.90
41262;DHT22;29629;52.532;13.352;2023-12-07T04:37:23;2.50;99.90
41262;DHT22;29629;52.532;13.352;2023-12-07T04:39:50;2.50;99.90
41262;DHT22;29629;52.532;13.352;2023-12-07T04:42:17;2.50;99.90
41262;DHT22;29629;52.532;13.352;2023-12-07T04:44:45;2.60;99.90
41262;DHT22;29629;52.532;13.352;2023-12-07T04:47:12;2.60;99.90
41262;DHT22;29629;52.532;13.352;2023-12-07T04:49:39;2.50;99.90
41262;DHT22;29629;52.532;13.352;2023-12-07T04:52:06;2.60;99.90
41262;DHT22;29629;52.532;13.352;2023-12-07T04:54:33;2.50;99.90
41262;DHT22;29629;52.532;13.352;2023-12-07T04:57:00;2.60;99.90
41262;DHT22;29629;52.532;13.352;2023-12-07T04:59:27;2.50;99.90
41262;DHT22;29629;52.532;13.352;2023-12-07T05:01:55;2.60;99.90
41262;DHT22;29629;52.532;13.352;2023-12-07T05:04:22;2.50;99.90
41262;DHT22;29629;52.532;13.352;2023-12-07T05:06:49;2.50;99.90
41262;DHT22;29629;52.532;13.352;2023-12-07T05:09:16;2.50;99.90
41262;DHT22;29629;52.532;13.352;2023-12-07T05:11:43;2.60;99.90
41262;DHT22;29629;52.532;13.352;2023-12-07T05:14:10;2.60;99.90
41262;DHT22;29629;52.532;13.352;2023-12-07T05:16:38;2.50;99.90
41262;DHT22;29629;52.532;13.352;2023-12-07T05:19:06;2.50;99.90
41262;DHT22;29629;52.532;13.352;2023-12-07T05:21:33;2.50;99.90
41262;DHT22;29629;52.532;13.352;2023-12-07T05:24:00;2.50;99.90
41262;DHT22;29629;52.532;13.352;2023-12-07T05:26:27;2.50;99.90
41262;DHT22;29629;52.532;13.352;2023-12-07T05:28:55;2.50;99.90
41262;DHT22;29629;52.532;13.352;2023-12-07T05:31:22;2.50;99.90
41262;DHT22;29629;52.532;13.352;2023-12-07T05:33:49;2.60;99.90
41262;DHT22;29629;52.532;13.352;2023-12-07T05:36:17;2.50;99.90
41262;DHT22;29629;52.532;13.352;2023-12-07T05:38:44;2.60;99.90
41262;DHT22;29629;52.532;13.352;2023-12-07T05:41:11;2.60;99.90
41262;DHT22;29629;52.532;13.352;2023-12-07T05:43:40;2.50;99.90
41262;DHT22;29629;52.532;13.352;2023-12-07T05:46:07;2.60;99.90
41262;DHT22;29629;52.532;13.352;2023-12-07T05:48:34;2.60;99.90
41262;DHT22;29629;52.532;13.352;2023-12-07T05:51:01;2.60;99.90
41262;DHT22;29629;52.532;13.352;2023-12-07T05:53:30;2.60;99.90
41262;DHT22;29629;52.532;13.352;2023-12-07T05:55:58;2.60;99.90
41262;DHT22;29629;52.532;13.352;2023-12-07T05:58:25;2.70;99.90
41262;DHT22;29629;52.532;13.352;2023-12-07T06:00:52;2.50;99.90
41262;DHT22;29629;52.532;13.352;2023-12-07T06:03:19;2.60;99.90
41262;DHT22;29629;52.532;13.352;2023-12-07T06:05:46;2.70;99.90
41262;DHT22;29629;52.532;13.352;2023-12-07T06:08:13;2.70;99.90
41262;DHT22;29629;52.532;13.352;2023-12-07T06:10:41;2.70;99.90
41262;DHT22;29629;52.532;13.352;2023-12-07T06:13:08;2.50;99.90
41262;DHT22;29629;52.532;13.352;2023-12-07T06:15:36;2.60;99.90
41262;DHT22;29629;52.532;13.352;2023-12-07T06:18:03;2.60;99.90
41262;DHT22;29629;52.532;13.352;2023-12-07T06:20:29;2.60;99.90
41262;DHT22;29629;52.532;13.352;2023-12-07T06:22:56;2.60;99.90
41262;DHT22;29629;52.532;13.352;2023-12-07T06:25:24;2.70;99.90
41262;DHT22;29629;52.532;13.352;2023-12-07T06:27:52;2.80;99.90
41262;DHT22;29629;52.532;13.352;2023-12-07T06:30:19;2.70;99.90
41262;DHT22;29629;52.532;13.352;2023-12-07T06:32:47;2.70;99.90
41262;DHT22;29629;52.532;13.352;2023-12-07T06:35:14;2.60;99.90
41262;DHT22;29629;52.532;13.352;2023-12-07T06:37:41;2.60;99.90
41262;DHT22;29629;52.532;13.352;2023-12-07T06:40:09;2.60;99.90
41262;DHT22;29629;52.532;13.352;2023-12-07T06:42:36;2.70;99.90
41262;DHT22;29629;52.532;13.352;2023-12-07T06:45:06;2.70;99.90
41262;DHT22;29629;52.532;13.352;2023-12-07T06:47:36;2.80;99.90
41262;DHT22;29629;52.532;13.352;2023-12-07T06:50:04;2.80;99.90
41262;DHT22;29629;52.532;13.352;2023-12-07T06:52:33;2.80;99.90
41262;DHT22;29629;52.532;13.352;2023-12-07T06:55:01;2.80;99.90
41262;DHT22;29629;52.532;13.352;2023-12-07T06:57:27;2.70;99.90
41262;DHT22;29629;52.532;13.352;2023-12-07T06:59:55;2.70;99.90
41262;DHT22;29629;52.532;13.352;2023-12-07T07:02:23;2.70;99.90
41262;DHT22;29629;52.532;13.352;2023-12-07T07:04:51;2.70;99.90
41262;DHT22;29629;52.532;13.352;2023-12-07T07:07:18;2.60;99.90
41262;DHT22;29629;52.532;13.352;2023-12-07T07:09:45;2.60;99.90
41262;DHT22;29629;52.532;13.352;2023-12-07T07:12:12;2.60;99.90
41262;DHT22;29629;52.532;13.352;2023-12-07T07:14:40;2.70;99.90
41262;DHT22;29629;52.532;13.352;2023-12-07T07:17:07;2.60;99.90
41262;DHT22;29629;52.532;13.352;2023-12-07T07:19:35;2.60;99.90
41262;DHT22;29629;52.532;13.352;2023-12-07T07:22:02;2.70;99.90
41262;DHT22;29629;52.532;13.352;2023-12-07T07:24:29;2.70;99.90
41262;DHT22;29629;52.532;13.352;2023-12-07T07:26:56;2.70;99.90
41262;DHT22;29629;52.532;13.352;2023-12-07T07:29:22;2.80;99.90
41262;DHT22;29629;52.532;13.352;2023-12-07T07:31:49;2.70;99.90
41262;DHT22;29629;52.532;13.352;2023-12-07T07:34:16;2.70;99.90
41262;DHT22;29629;52.532;13.352;2023-12-07T07:36:45;2.70;99.90
41262;DHT22;29629;52.532;13.352;2023-12-07T07:39:11;2.60;99.90
41262;DHT22;29629;52.532;13.352;2023-12-07T07:41:39;2.60;99.90
41262;DHT22;29629;52.532;13.352;2023-12-07T07:44:06;2.70;99.90
41262;DHT22;29629;52.532;13.352;2023-12-07T07:46:33;2.70;99.90
41262;DHT22;29629;52.532;13.352;2023-12-07T07:49:00;2.70;99.90
41262;DHT22;29629;52.532;13.352;2023-12-07T07:51:29;2.70;99.90
41262;DHT22;29629;52.532;13.352;2023-12-07T07:53:59;2.80;99.90
41262;DHT22;29629;52.532;13.352;2023-12-07T07:56:25;2.80;99.90
41262;DHT22;29629;52.532;13.352;2023-12-07T07:58:52;2.70;99.90
41262;DHT22;29629;52.532;13.352;2023-12-07T08:01:19;2.80;99.90
41262;DHT22;29629;52.532;13.352;2023-12-07T08:03:47;2.80;99.90
41262;DHT22;29629;52.532;13.352;2023-12-07T08:06:14;2.70;99.90
41262;DHT22;29629;52.532;13.352;2023-12-07T08:08:41;2.70;99.90
41262;DHT22;29629;52.532;13.352;2023-12-07T08:11:09;2.80;99.90
41262;DHT22;29629;52.532;13.352;2023-12-07T08:13:36;2.60;99.90
41262;DHT22;29629;52.532;13.352;2023-12-07T08:16:03;2.70;99.90
41262;DHT22;29629;52.532;13.352;2023-12-07T08:18:34;2.80;99.90
41262;DHT22;29629;52.532;13.352;2023-12-07T08:21:01;2.90;99.90
41262;DHT22;29629;52.532;13.352;2023-12-07T08:23:28;2.80;99.90
41262;DHT22;29629;52.532;13.352;2023-12-07T08:25:58;2.90;99.90
41262;DHT22;29629;52.532;13.352;2023-12-07T08:28:27;2.80;99.90
41262;DHT22;29629;52.532;13.352;2023-12-07T08:30:54;2.80;99.90
41262;DHT22;29629;52.532;13.352;2023-12-07T08:33:21;2.70;99.90
41262;DHT22;29629;52.532;13.352;2023-12-07T08:35:48;2.70;99.90
41262;DHT22;29629;52.532;13.352;2023-12-07T08:38:20;2.80;99.90
41262;DHT22;29629;52.532;13.352;2023-12-07T08:40:47;2.90;99.90
41262;DHT22;29629;52.532;13.352;2023-12-07T08:43:16;2.80;99.90
41262;DHT22;29629;52.532;13.352;2023-12-07T08:45:44;2.90;99.90
41262;DHT22;29629;52.532;13.352;2023-12-07T08:48:11;2.80;99.90
41262;DHT22;29629;52.532;13.352;2023-12-07T08:50:38;2.90;99.90
41262;DHT22;29629;52.532;13.352;2023-12-07T08:53:06;2.90;99.90
41262;DHT22;29629;52.532;13.352;2023-12-07T08:55:33;3.00;99.90
41262;DHT22;29629;52.532;13.352;2023-12-07T08:58:00;2.90;99.90
41262;DHT22;29629;52.532;13.352;2023-12-07T09:00:30;2.90;99.90
41262;DHT22;29629;52.532;13.352;2023-12-07T09:02:57;2.90;99.90
41262;DHT22;29629;52.532;13.352;2023-12-07T09:05:26;3.00;99.90
41262;DHT22;29629;52.532;13.352;2023-12-07T09:07:53;2.90;99.90
41262;DHT22;29629;52.532;13.352;2023-12-07T09:10:20;2.90;99.90
41262;DHT22;29629;52.532;13.352;2023-12-07T09:12:47;2.90;99.90
41262;DHT22;29629;52.532;13.352;2023-12-07T09:15:14;3.00;99.90
41262;DHT22;29629;52.532;13.352;2023-12-07T09:17:41;2.90;99.90
41262;DHT22;29629;52.532;13.352;2023-12-07T09:20:10;3.00;99.90
41262;DHT22;29629;52.532;13.352;2023-12-07T09:22:39;3.00;99.90
41262;DHT22;29629;52.532;13.352;2023-12-07T09:25:07;3.00;99.90
41262;DHT22;29629;52.532;13.352;2023-12-07T09:27:35;2.90;99.90
41262;DHT22;29629;52.532;13.352;2023-12-07T09:30:04;3.00;99.90
41262;DHT22;29629;52.532;13.352;2023-12-07T09:32:32;3.00;99.90
41262;DHT22;29629;52.532;13.352;2023-12-07T09:35:04;3.00;99.90
41262;DHT22;29629;52.532;13.352;2023-12-07T09:37:32;3.00;99.90
41262;DHT22;29629;52.532;13.352;2023-12-07T09:39:59;3.10;99.90
41262;DHT22;29629;52.532;13.352;2023-12-07T09:42:26;3.20;99.90
41262;DHT22;29629;52.532;13.352;2023-12-07T09:44:54;3.20;99.90
41262;DHT22;29629;52.532;13.352;2023-12-07T09:47:21;3.20;99.90
41262;DHT22;29629;52.532;13.352;2023-12-07T09:49:48;3.10;99.90
41262;DHT22;29629;52.532;13.352;2023-12-07T09:52:15;3.20;99.90
41262;DHT22;29629;52.532;13.352;2023-12-07T09:54:44;3.00;99.90
41262;DHT22;29629;52.532;13.352;2023-12-07T09:57:12;3.00;99.90
41262;DHT22;29629;52.532;13.352;2023-12-07T09:59:40;2.90;99.90
41262;DHT22;29629;52.532;13.352;2023-12-07T10:02:07;3.00;99.90
41262;DHT22;29629;52.532;13.352;2023-12-07T10:04:34;3.00;99.90
41262;DHT22;29629;52.532;13.352;2023-12-07T10:07:02;3.00;99.90
41262;DHT22;29629;52.532;13.352;2023-12-07T10:09:29;3.10;99.90
41262;DHT22;29629;52.532;13.352;2023-12-07T10:12:03;3.10;99.90
41262;DHT22;29629;52.532;13.352;2023-12-07T10:14:31;3.00;99.90
41262;DHT22;29629;52.532;13.352;2023-12-07T10:16:59;2.90;99.90
41262;DHT22;29629;52.532;13.352;2023-12-07T10:19:26;3.20;99.90
41262;DHT22;29629;52.532;13.352;2023-12-07T10:21:54;3.20;99.90
41262;DHT22;29629;52.532;13.352;2023-12-07T10:24:22;3.10;99.90
41262;DHT22;29629;52.532;13.352;2023-12-07T10:26:51;3.20;99.90
41262;DHT22;29629;52.532;13.352;2023-12-07T10:29:20;3.20;99.90
41262;DHT22;29629;52.532;13.352;2023-12-07T10:31:49;3.10;99.90
41262;DHT22;29629;52.532;13.352;2023-12-07T10:34:18;3.30;99.90
41262;DHT22;29629;52.532;13.352;2023-12-07T10:36:46;3.40;99.90
41262;DHT22;29629;52.532;13.352;2023-12-07T10:39:13;3.30;99.90
41262;DHT22;29629;52.532;13.352;2023-12-07T10:41:43;3.30;99.90
41262;DHT22;29629;52.532;13.352;2023-12-07T10:44:13;3.30;99.90
41262;DHT22;29629;52.532;13.352;2023-12-07T10:46:42;3.40;99.90
41262;DHT22;29629;52.532;13.352;2023-12-07T10:49:15;3.40;99.90
41262;DHT22;29629;52.532;13.352;2023-12-07T10:51:49;3.60;99.90
41262;DHT22;29629;52.532;13.352;2023-12-07T10:54:18;3.60;99.90
41262;DHT22;29629;52.532;13.352;2023-12-07T10:56:48;3.60;99.90
41262;DHT22;29629;52.532;13.352;2023-12-07T10:59:16;3.30;99.90
41262;DHT22;29629;52.532;13.352;2023-12-07T11:01:45;3.20;99.90
41262;DHT22;29629;52.532;13.352;2023-12-07T11:04:14;3.20;99.90
41262;DHT22;29629;52.532;13.352;2023-12-07T11:06:44;3.40;99.90
41262;DHT22;29629;52.532;13.352;2023-12-07T11:09:16;3.40;99.90
41262;DHT22;29629;52.532;13.352;2023-12-07T11:11:48;3.40;99.90
41262;DHT22;29629;52.532;13.352;2023-12-07T11:14:18;3.40;99.90
41262;DHT22;29629;52.532;13.352;2023-12-07T11:16:47;3.40;99.90
41262;DHT22;29629;52.532;13.352;2023-12-07T11:19:45;3.40;99.90
41262;DHT22;29629;52.532;13.352;2023-12-07T11:22:13;3.40;99.90
41262;DHT22;29629;52.532;13.352;2023-12-07T11:24:52;3.30;99.90
41262;DHT22;29629;52.532;13.352;2023-12-07T11:27:21;3.30;99.90
41262;DHT22;29629;52.532;13.352;2023-12-07T11:29:48;3.20;99.90
41262;DHT22;29629;52.532;13.352;2023-12-07T11:32:17;3.30;99.90
41262;DHT22;29629;52.532;13.352;2023-12-07T11:34:44;3.30;99.90
41262;DHT22;29629;52.532;13.352;2023-12-07T11:37:14;3.30;99.90
41262;DHT22;29629;52.532;13.352;2023-12-07T11:39:42;3.40;99.90
41262;DHT22;29629;52.532;13.352;2023-12-07T11:42:12;3.40;99.90
41262;DHT22;29629;52.532;13.352;2023-12-07T11:44:39;3.20;99.90
41262;DHT22;29629;52.532;13.352;2023-12-07T11:47:07;3.20;99.90
41262;DHT22;29629;52.532;13.352;2023-12-07T11:49:36;3.30;99.90
41262;DHT22;29629;52.532;13.352;2023-12-07T11:52:13;3.20;99.90
41262;DHT22;29629;52.532;13.352;2023-12-07T11:54:44;3.10;99.90
41262;DHT22;29629;52.532;13.352;2023-12-07T11:57:11;3.20;99.90
41262;DHT22;29629;52.532;13.352;2023-12-07T11:59:38;3.30;99.90
41262;DHT22;29629;52.532;13.352;2023-12-07T12:02:05;3.20;99.90
41262;DHT22;29629;52.532;13.352;2023-12-07T12:04:33;3.20;99.90
41262;DHT22;29629;52.532;13.352;2023-12-07T12:07:02;3.40;99.90
41262;DHT22;29629;52.532;13.352;2023-12-07T12:09:28;3.30;99.90
41262;DHT22;29629;52.532;13.352;2023-12-07T12:11:57;3.20;99.90
41262;DHT22;29629;52.532;13.352;2023-12-07T12:14:26;3.20;99.90
41262;DHT22;29629;52.532;13.352;2023-12-07T12:16:53;3.20;99.90
41262;DHT22;29629;52.532;13.352;2023-12-07T12:19:22;3.20;99.90
41262;DHT22;29629;52.532;13.352;2023-12-07T12:21:49;3.20;99.90
41262;DHT22;29629;52.532;13.352;2023-12-07T12:24:17;3.00;99.90
41262;DHT22;29629;52.532;13.352;2023-12-07T12:26:44;3.20;99.90
41262;DHT22;29629;52.532;13.352;2023-12-07T12:29:13;3.20;99.90
41262;DHT22;29629;52.532;13.352;2023-12-07T12:31:41;3.00;99.90
41262;DHT22;29629;52.532;13.352;2023-12-07T12:34:08;3.10;99.90
41262;DHT22;29629;52.532;13.352;2023-12-07T12:36:37;3.10;99.90
41262;DHT22;29629;52.532;13.352;2023-12-07T12:39:04;3.00;99.90
41262;DHT22;29629;52.532;13.352;2023-12-07T12:41:35;3.30;99.90
41262;DHT22;29629;52.532;13.352;2023-12-07T12:44:04;3.30;99.90
41262;DHT22;29629;52.532;13.352;2023-12-07T12:46:31;3.40;99.90
41262;DHT22;29629;52.532;13.352;2023-12-07T12:49:01;3.40;99.90
41262;DHT22;29629;52.532;13.352;2023-12-07T12:51:30;3.30;99.90
41262;DHT22;29629;52.532;13.352;2023-12-07T12:53:59;3.20;99.90
41262;DHT22;29629;52.532;13.352;2023-12-07T12:56:27;3.30;99.90
41262;DHT22;29629;52.532;13.352;2023-12-07T12:58:55;3.30;99.90
41262;DHT22;29629;52.532;13.352;2023-12-07T13:01:23;3.40;99.90
41262;DHT22;29629;52.532;13.352;2023-12-07T13:03:50;3.40;99.90
41262;DHT22;29629;52.532;13.352;2023-12-07T13:06:17;3.50;99.90
41262;DHT22;29629;52.532;13.352;2023-12-07T13:08:44;3.40;99.90
41262;DHT22;29629;52.532;13.352;2023-12-07T13:11:15;3.40;99.90
41262;DHT22;29629;52.532;13.352;2023-12-07T13:13:42;3.50;99.90
41262;DHT22;29629;52.532;13.352;2023-12-07T13:16:10;3.50;99.90
41262;DHT22;29629;52.532;13.352;2023-12-07T13:18:38;3.50;99.90
41262;DHT22;29629;52.532;13.352;2023-12-07T13:21:05;3.40;99.90
41262;DHT22;29629;52.532;13.352;2023-12-07T13:23:32;3.40;99.90
41262;DHT22;29629;52.532;13.352;2023-12-07T13:25:59;3.40;99.90
41262;DHT22;29629;52.532;13.352;2023-12-07T13:28:26;3.40;99.90
41262;DHT22;29629;52.532;13.352;2023-12-07T13:30:53;3.40;99.90
41262;DHT22;29629;52.532;13.352;2023-12-07T13:33:22;3.40;99.90
41262;DHT22;29629;52.532;13.352;2023-12-07T13:35:49;3.30;99.90
41262;DHT22;29629;52.532;13.352;2023-12-07T13:38:17;3.50;99.90
41262;DHT22;29629;52.532;13.352;2023-12-07T13:40:45;3.30;99.90
41262;DHT22;29629;52.532;13.352;2023-12-07T13:43:12;3.30;99.90
41262;DHT22;29629;52.532;13.352;2023-12-07T13:45:39;3.40;99.90
41262;DHT22;29629;52.532;13.352;2023-12-07T13:48:06;3.30;99.90
41262;DHT22;29629;52.532;13.352;2023-12-07T13:50:35;3.30;99.90
41262;DHT22;29629;52.532;13.352;2023-12-07T13:53:01;3.30;99.90
41262;DHT22;29629;52.532;13.352;2023-12-07T13:55:28;3.40;99.90
41262;DHT22;29629;52.532;13.352;2023-12-07T13:57:55;3.50;99.90
41262;DHT22;29629;52.532;13.352;2023-12-07T14:00:23;3.50;99.90
41262;DHT22;29629;52.532;13.352;2023-12-07T14:02:49;3.50;99.90
41262;DHT22;29629;52.532;13.352;2023-12-07T14:05:16;3.50;99.90
41262;DHT22;29629;52.532;13.352;2023-12-07T14:07:46;3.30;99.90
41262;DHT22;29629;52.532;13.352;2023-12-07T14:10:13;3.40;99.90
41262;DHT22;29629;52.532;13.352;2023-12-07T14:12:40;3.50;99.90
41262;DHT22;29629;52.532;13.352;2023-12-07T14:15:08;3.50;99.90
41262;DHT22;29629;52.532;13.352;2023-12-07T14:17:36;3.40;99.90
41262;DHT22;29629;52.532;13.352;2023-12-07T14:20:04;3.40;99.90
41262;DHT22;29629;52.532;13.352;2023-12-07T14:22:32;3.40;99.90
41262;DHT22;29629;52.532;13.352;2023-12-07T14:25:02;3.50;99.90
41262;DHT22;29629;52.532;13.352;2023-12-07T14:27:29;3.50;99.90
41262;DHT22;29629;52.532;13.352;2023-12-07T14:29:56;3.40;99.90
41262;DHT22;29629;52.532;13.352;2023-12-07T14:32:23;3.50;99.90
41262;DHT22;29629;52.532;13.352;2023-12-07T14:34:49;3.40;99.90
41262;DHT22;29629;52.532;13.352;2023-12-07T14:37:17;3.40;99.90
41262;DHT22;29629;52.532;13.352;2023-12-07T14:39:44;3.40;99.90
41262;DHT22;29629;52.532;13.352;2023-12-07T14:42:12;3.40;99.90
41262;DHT22;29629;52.532;13.352;2023-12-07T14:44:39;3.50;99.90
41262;DHT22;29629;52.532;13.352;2023-12-07T14:47:06;3.40;99.90
41262;DHT22;29629;52.532;13.352;2023-12-07T14:49:33;3.40;99.90
41262;DHT22;29629;52.532;13.352;2023-12-07T14:52:00;3.50;99.90
41262;DHT22;29629;52.532;13.352;2023-12-07T14:54:27;3.40;99.90
41262;DHT22;29629;52.532;13.352;2023-12-07T14:56:56;3.40;99.90
41262;DHT22;29629;52.532;13.352;2023-12-07T14:59:24;3.40;99.90
41262;DHT22;29629;52.532;13.352;2023-12-07T15:01:52;3.40;99.90
41262;DHT22;29629;52.532;13.352;2023-12-07T15:04:19;3.30;99.90
41262;DHT22;29629;52.532;13.352;2023-12-07T15:06:46;3.30;99.90
41262;DHT22;29629;52.532;13.352;2023-12-07T15:09:13;3.30;99.90
41262;DHT22;29629;52.532;13.352;2023-12-07T15:11:41;3.30;99.90
41262;DHT22;29629;52.532;13.352;2023-12-07T15:14:07;3.30;99.90
41262;DHT22;29629;52.532;13.352;2023-12-07T15:16:37;3.20;99.90
41262;DHT22;29629;52.532;13.352;2023-12-07T15:19:04;3.30;99.90
41262;DHT22;29629;52.532;13.352;2023-12-07T15:21:31;3.40;99.90
41262;DHT22;29629;52.532;13.352;2023-12-07T15:23:58;3.20;99.90
41262;DHT22;29629;52.532;13.352;2023-12-07T15:26:26;3.10;99.90
41262;DHT22;29629;52.532;13.352;2023-12-07T15:28:52;3.10;99.90
41262;DHT22;29629;52.532;13.352;2023-12-07T15:31:19;3.10;99.90
41262;DHT22;29629;52.532;13.352;2023-12-07T15:33:48;3.10;99.90